createdAt,value
2022-10-07T00:00:02.658Z,0
2022-10-07T00:05:02.634Z,0
2022-10-07T00:10:03.192Z,0
2022-10-07T00:15:02.899Z,0
2022-10-07T00:20:02.541Z,0
2022-10-07T00:25:03.287Z,0
2022-10-07T00:30:08.661Z,0
2022-10-07T00:35:02.903Z,0
2022-10-07T00:40:03.075Z,0
2022-10-07T00:45:02.599Z,0
2022-10-07T00:50:03.203Z,0
2022-10-07T00:55:04.079Z,0
2022-10-07T01:00:02.707Z,0
2022-10-07T01:05:03.369Z,0
2022-10-07T01:10:02.961Z,0
2022-10-07T01:15:03.669Z,0
2022-10-07T01:20:03.240Z,0
2022-10-07T01:25:02.863Z,0
2022-10-07T01:30:03.529Z,0
2022-10-07T01:35:03.335Z,0
2022-10-07T01:40:03.082Z,0
2022-10-07T01:45:02.982Z,0
2022-10-07T01:50:03.360Z,0
2022-10-07T01:55:04.359Z,0
2022-10-07T02:00:02.714Z,0
2022-10-07T02:05:03.323Z,0
2022-10-07T02:10:02.982Z,0
2022-10-07T02:15:02.646Z,0
2022-10-07T02:20:03.300Z,0
2022-10-07T02:25:02.903Z,0
2022-10-07T02:30:02.570Z,0
2022-10-07T02:35:03.154Z,0
2022-10-07T02:40:03.946Z,0
2022-10-07T02:45:03.228Z,0
2022-10-07T02:50:02.849Z,0
2022-10-07T02:55:03.663Z,0
2022-10-07T03:00:11.240Z,0
2022-10-07T03:05:03.183Z,0
2022-10-07T03:10:02.854Z,0
2022-10-07T03:15:02.498Z,0
2022-10-07T03:20:03.142Z,0
2022-10-07T03:25:03.219Z,0
2022-10-07T03:30:02.792Z,0
2022-10-07T03:35:02.374Z,0
2022-10-07T03:40:02.981Z,0
2022-10-07T03:45:02.949Z,0
2022-10-07T03:50:02.707Z,0
2022-10-07T03:55:03.812Z,0
2022-10-07T04:00:03.012Z,0
2022-10-07T04:05:02.786Z,0
2022-10-07T04:10:02.475Z,0
2022-10-07T04:15:03.135Z,0
2022-10-07T04:20:02.897Z,0
2022-10-07T04:25:02.539Z,0
2022-10-07T04:30:03.291Z,0
2022-10-07T04:35:02.971Z,0
2022-10-07T04:40:02.667Z,0.23
2022-10-07T04:45:02.582Z,0.91
2022-10-07T04:50:03.176Z,2.6
2022-10-07T04:55:04.080Z,7.13
2022-10-07T05:00:02.618Z,6.67
2022-10-07T05:05:03.374Z,20
2022-10-07T05:10:03.007Z,43.33
2022-10-07T05:15:02.839Z,78.33
2022-10-07T05:20:02.478Z,130
2022-10-07T05:25:03.137Z,196.67
2022-10-07T05:30:02.833Z,268.33
2022-10-07T05:35:02.508Z,360
2022-10-07T05:40:03.164Z,446.67
2022-10-07T05:45:02.895Z,543.33
2022-10-07T05:50:02.576Z,638.33
2022-10-07T05:55:04.234Z,730
2022-10-07T06:00:02.936Z,820
2022-10-07T06:05:02.550Z,891.67
2022-10-07T06:10:03.271Z,973.33
2022-10-07T06:15:03.001Z,1956.67
2022-10-07T06:20:02.758Z,2073.33
2022-10-07T06:25:03.450Z,2248.33
2022-10-07T06:30:03.374Z,2430
2022-10-07T06:35:03.036Z,2748.33
2022-10-07T06:40:02.802Z,3168.33
2022-10-07T06:45:02.547Z,3870
2022-10-07T06:50:03.162Z,3858.33
2022-10-07T06:55:03.947Z,4383.33
2022-10-07T07:00:03.382Z,5491.67
2022-10-07T07:10:02.788Z,4348.33
2022-10-07T07:15:02.462Z,4215
2022-10-07T07:20:03.157Z,4533.33
2022-10-07T07:25:02.813Z,4608.33
2022-10-07T07:30:02.502Z,4660
2022-10-07T07:35:03.157Z,7533.33
2022-10-07T07:40:02.828Z,8470
2022-10-07T07:45:02.570Z,8091.67
2022-10-07T07:50:02.648Z,7476.67
2022-10-07T07:55:04.837Z,7203.33
2022-10-07T08:00:03.122Z,6815
2022-10-07T08:05:02.731Z,6765
2022-10-07T08:10:02.492Z,8326.67
2022-10-07T08:15:03.182Z,9258.33
2022-10-07T08:20:02.886Z,10645
2022-10-07T08:25:02.507Z,11370
2022-10-07T08:30:03.224Z,12038.33
2022-10-07T08:35:02.859Z,11421.67
2022-10-07T08:40:02.598Z,9876.67
2022-10-07T08:45:03.328Z,9621.67
2022-10-07T08:50:02.929Z,9388.33
2022-10-07T08:55:04.112Z,11293.33
2022-10-07T09:00:02.458Z,12446.67
2022-10-07T09:05:03.114Z,12098.33
2022-10-07T09:10:02.835Z,11408.33
2022-10-07T09:15:02.491Z,9265
2022-10-07T09:20:02.479Z,9048.33
2022-10-07T09:25:11.599Z,10655
2022-10-07T09:30:03.524Z,28593.33
2022-10-07T09:35:02.762Z,28063.33
2022-10-07T09:40:03.118Z,27633.33
2022-10-07T09:45:02.680Z,31190
2022-10-07T09:50:03.257Z,30590
2022-10-07T09:55:03.795Z,34150
2022-10-07T10:00:02.561Z,31776.67
2022-10-07T10:05:03.258Z,13020
2022-10-07T10:10:03.021Z,13011.67
2022-10-07T10:15:02.619Z,30580
2022-10-07T10:20:03.330Z,31970
2022-10-07T10:25:03.192Z,31006.67
2022-10-07T10:30:02.907Z,30623.33
2022-10-07T10:35:02.513Z,32260
2022-10-07T10:40:03.201Z,31370
2022-10-07T10:45:02.932Z,31613.33
2022-10-07T10:50:03.373Z,30596.67
2022-10-07T10:55:03.998Z,29013.33
2022-10-07T11:00:02.748Z,28736.67
2022-10-07T11:05:02.730Z,28320
2022-10-07T11:10:02.560Z,29026.67
2022-10-07T11:15:03.221Z,28936.67
2022-10-07T11:20:02.969Z,13150
2022-10-07T11:25:02.599Z,8040
2022-10-07T11:30:02.594Z,12985
2022-10-07T11:35:03.313Z,29513.33
2022-10-07T11:40:03.043Z,31670
2022-10-07T11:45:03.477Z,32273.33
2022-10-07T11:50:02.599Z,28333.33
2022-10-07T11:55:05.159Z,11933.33
2022-10-07T12:00:02.927Z,11306.67
2022-10-07T12:05:02.631Z,12216.67
2022-10-07T12:10:03.291Z,27590
2022-10-07T12:15:03.033Z,31683.33
2022-10-07T12:20:02.791Z,13298.33
2022-10-07T12:25:02.463Z,12563.33
2022-10-07T12:30:03.175Z,12788.33
2022-10-07T12:35:02.766Z,12815
2022-10-07T12:40:02.581Z,11806.67
2022-10-07T12:45:03.332Z,11035
2022-10-07T12:50:03.205Z,10020
2022-10-07T12:55:03.874Z,9913.33
2022-10-07T13:00:03.456Z,9731.67
2022-10-07T13:05:03.019Z,8708.33
2022-10-07T13:10:02.698Z,8900
2022-10-07T13:15:02.650Z,8973.33
2022-10-07T13:20:03.429Z,7920
2022-10-07T13:25:03.181Z,8863.33
2022-10-07T13:30:03.077Z,8973.33
2022-10-07T13:35:02.731Z,8425
2022-10-07T13:40:03.258Z,7573.33
2022-10-07T13:45:03.098Z,7515
2022-10-07T13:55:04.699Z,6165
2022-10-07T14:00:02.880Z,5998.33
2022-10-07T14:05:02.759Z,6151.67
2022-10-07T14:10:03.369Z,6090
2022-10-07T14:15:03.119Z,5808.33
2022-10-07T14:20:02.535Z,5235
2022-10-07T14:25:03.561Z,5116.67
2022-10-07T14:30:03.151Z,4720
2022-10-07T14:35:02.711Z,4291.67
2022-10-07T14:40:03.393Z,3860
2022-10-07T14:45:03.068Z,3758.33
2022-10-07T14:50:02.703Z,3440
2022-10-07T14:55:04.549Z,3346.67
2022-10-07T15:00:02.907Z,3036.67
2022-10-07T15:05:02.872Z,2443.33
2022-10-07T15:10:03.413Z,2423.33
2022-10-07T15:15:03.091Z,2308.33
2022-10-07T15:20:02.745Z,1941.67
2022-10-07T15:25:03.339Z,2113.33
2022-10-07T15:30:03.020Z,1708.33
2022-10-07T15:35:02.622Z,1245
2022-10-07T15:40:03.248Z,930
2022-10-07T15:45:02.916Z,876.67
2022-10-07T15:50:02.842Z,865
2022-10-07T15:55:08.624Z,800
2022-10-07T16:00:03.350Z,693.33
2022-10-07T16:05:03.001Z,703.33
2022-10-07T16:10:02.679Z,656.67
2022-10-07T16:15:03.133Z,616.67
2022-10-07T16:20:11.312Z,516.67
2022-10-07T16:25:02.478Z,375
2022-10-07T16:30:03.124Z,240
2022-10-07T16:35:02.874Z,163.33
2022-10-07T16:40:02.395Z,55
2022-10-07T16:45:03.426Z,28.33
2022-10-07T16:50:11.296Z,11.67
2022-10-07T16:55:04.446Z,10.3
2022-10-07T17:00:02.676Z,3.96
2022-10-07T17:05:03.419Z,1.47
2022-10-07T17:10:03.173Z,0.45
2022-10-07T17:15:02.820Z,0.11
2022-10-07T17:20:02.493Z,0
2022-10-07T17:25:03.209Z,0
2022-10-07T17:30:02.855Z,0
2022-10-07T17:35:02.475Z,0
2022-10-07T17:40:03.301Z,0
2022-10-07T17:45:02.973Z,0
2022-10-07T17:50:02.526Z,0
2022-10-07T17:55:03.580Z,0
2022-10-07T18:00:03.522Z,0
2022-10-07T18:05:03.311Z,0
2022-10-07T18:10:02.727Z,0
2022-10-07T18:15:03.386Z,0
2022-10-07T18:20:03.114Z,0
2022-10-07T18:25:02.670Z,0
2022-10-07T18:30:03.235Z,0
2022-10-07T18:35:02.807Z,0
2022-10-07T18:40:03.476Z,0
2022-10-07T18:45:03.503Z,0
2022-10-07T18:50:02.989Z,0
2022-10-07T18:55:03.495Z,0
2022-10-07T19:00:03.277Z,0
2022-10-07T19:05:02.762Z,0
2022-10-07T19:10:02.373Z,0
2022-10-07T19:15:03.133Z,0
2022-10-07T19:20:02.867Z,0
2022-10-07T19:25:02.494Z,0
2022-10-07T19:30:03.231Z,0
2022-10-07T19:35:02.770Z,0
2022-10-07T19:40:02.384Z,0
2022-10-07T19:45:03.061Z,0
2022-10-07T19:50:02.621Z,0
2022-10-07T19:55:04.662Z,0
2022-10-07T20:00:03.182Z,0
2022-10-07T20:05:02.903Z,0
2022-10-07T20:10:02.519Z,0
2022-10-07T20:15:03.155Z,0
2022-10-07T20:20:02.691Z,0
2022-10-07T20:25:03.347Z,0
2022-10-07T20:30:03.128Z,0
2022-10-07T20:35:02.720Z,0
2022-10-07T20:40:03.454Z,0
2022-10-07T20:45:02.932Z,0
2022-10-07T20:50:02.576Z,0
2022-10-07T20:55:04.047Z,0
2022-10-07T21:00:02.785Z,0
2022-10-07T21:05:03.399Z,0
2022-10-07T21:10:03.096Z,0
2022-10-07T21:15:02.973Z,0
2022-10-07T21:20:02.746Z,0
2022-10-07T21:25:03.218Z,0
2022-10-07T21:30:02.898Z,0
2022-10-07T21:35:03.488Z,0
2022-10-07T21:40:03.128Z,0
2022-10-07T21:45:02.864Z,0
2022-10-07T21:50:03.334Z,0
2022-10-07T21:55:04.200Z,0
2022-10-07T22:00:03.153Z,0
2022-10-07T22:05:02.655Z,0
2022-10-07T22:10:03.316Z,0
2022-10-07T22:15:03.021Z,0
2022-10-07T22:20:02.772Z,0
2022-10-07T22:25:03.402Z,0
2022-10-07T22:30:03.074Z,0
2022-10-07T22:35:02.681Z,0
2022-10-07T22:40:03.327Z,0
2022-10-07T22:45:02.995Z,0
2022-10-07T22:50:02.831Z,0
2022-10-07T22:55:04.340Z,0
2022-10-07T23:00:02.842Z,0
2022-10-07T23:05:02.478Z,0
2022-10-07T23:10:03.125Z,0
2022-10-07T23:15:02.820Z,0
2022-10-07T23:20:03.448Z,0
2022-10-07T23:25:03.193Z,0
2022-10-07T23:30:02.884Z,0
2022-10-07T23:35:02.552Z,0
2022-10-07T23:40:03.210Z,0
2022-10-07T23:45:03.047Z,0
2022-10-07T23:50:03.626Z,0
2022-10-07T23:55:04.475Z,0
